sensor_id;sensor_type;location;lat;lon;timestamp;pressure;altitude;pressure_sealevel;temperature;humidity
72423;BME280;71399;54.146;38.734;2023-12-28T00:01:45;97591.44;;;-1.81;100.00
72423;BME280;71399;54.146;38.734;2023-12-28T00:04:11;97590.22;;;-1.79;100.00
72423;BME280;71399;54.146;38.734;2023-12-28T00:06:37;97587.88;;;-1.74;100.00
72423;BME280;71399;54.146;38.734;2023-12-28T00:09:04;97574.13;;;-1.81;100.00
72423;BME280;71399;54.146;38.734;2023-12-28T00:11:30;97582.28;;;-1.77;100.00
72423;BME280;71399;54.146;38.734;2023-12-28T00:13:57;97596.78;;;-1.83;100.00
72423;BME280;71399;54.146;38.734;2023-12-28T00:16:23;97604.34;;;-1.81;100.00
72423;BME280;71399;54.146;38.734;2023-12-28T00:18:49;97590.19;;;-1.92;100.00
72423;BME280;71399;54.146;38.734;2023-12-28T00:21:16;97596.97;;;-1.91;100.00
72423;BME280;71399;54.146;38.734;2023-12-28T00:23:42;97609.69;;;-1.90;100.00
72423;BME280;71399;54.146;38.734;2023-12-28T00:26:08;97612.47;;;-1.91;100.00
72423;BME280;71399;54.146;38.734;2023-12-28T00:28:35;97632.31;;;-1.98;100.00
72423;BME280;71399;54.146;38.734;2023-12-28T00:31:02;97609.47;;;-2.01;100.00
72423;BME280;71399;54.146;38.734;2023-12-28T00:33:28;97622.75;;;-2.05;100.00
72423;BME280;71399;54.146;38.734;2023-12-28T00:35:57;97637.25;;;-2.03;100.00
72423;BME280;71399;54.146;38.734;2023-12-28T00:38:23;97646.78;;;-2.04;100.00
72423;BME280;71399;54.146;38.734;2023-12-28T00:40:51;97667.63;;;-2.06;100.00
72423;BME280;71399;54.146;38.734;2023-12-28T00:43:17;97680.91;;;-2.15;100.00
72423;BME280;71399;54.146;38.734;2023-12-28T00:45:44;97708.09;;;-2.13;100.00
72423;BME280;71399;54.146;38.734;2023-12-28T00:48:10;97725.38;;;-2.13;100.00
72423;BME280;71399;54.146;38.734;2023-12-28T00:50:36;97751.38;;;-2.15;100.00
72423;BME280;71399;54.146;38.734;2023-12-28T00:53:02;97770.59;;;-2.17;100.00
72423;BME280;71399;54.146;38.734;2023-12-28T00:55:29;97793.00;;;-2.25;100.00
72423;BME280;71399;54.146;38.734;2023-12-28T00:57:55;97793.97;;;-2.26;100.00
72423;BME280;71399;54.146;38.734;2023-12-28T01:00:22;97799.34;;;-2.27;100.00
72423;BME280;71399;54.146;38.734;2023-12-28T01:02:48;97832.63;;;-2.32;100.00
72423;BME280;71399;54.146;38.734;2023-12-28T01:05:15;97864.50;;;-2.47;100.00
72423;BME280;71399;54.146;38.734;2023-12-28T01:07:41;97884.41;;;-2.62;100.00
72423;BME280;71399;54.146;38.734;2023-12-28T01:10:08;97900.44;;;-2.67;100.00
72423;BME280;71399;54.146;38.734;2023-12-28T01:12:34;97905.88;;;-2.76;100.00
72423;BME280;71399;54.146;38.734;2023-12-28T01:15:00;97916.56;;;-2.94;100.00
72423;BME280;71399;54.146;38.734;2023-12-28T01:17:27;97944.31;;;-2.96;100.00
72423;BME280;71399;54.146;38.734;2023-12-28T01:19:53;97948.59;;;-3.04;100.00
72423;BME280;71399;54.146;38.734;2023-12-28T01:22:20;97949.22;;;-3.17;100.00
72423;BME280;71399;54.146;38.734;2023-12-28T01:24:47;97971.06;;;-3.12;100.00
72423;BME280;71399;54.146;38.734;2023-12-28T01:27:15;97979.19;;;-3.15;100.00
72423;BME280;71399;54.146;38.734;2023-12-28T01:29:42;97977.06;;;-3.12;100.00
72423;BME280;71399;54.146;38.734;2023-12-28T01:32:09;97981.84;;;-3.09;100.00
72423;BME280;71399;54.146;38.734;2023-12-28T01:34:37;97984.50;;;-3.02;100.00
72423;BME280;71399;54.146;38.734;2023-12-28T01:37:03;98018.03;;;-3.02;100.00
72423;BME280;71399;54.146;38.734;2023-12-28T01:39:30;98014.53;;;-3.09;100.00
72423;BME280;71399;54.146;38.734;2023-12-28T01:41:56;98051.88;;;-3.05;100.00
72423;BME280;71399;54.146;38.734;2023-12-28T01:44:23;98048.97;;;-3.02;100.00
72423;BME280;71399;54.146;38.734;2023-12-28T01:46:50;98045.91;;;-3.06;100.00
72423;BME280;71399;54.146;38.734;2023-12-28T01:49:16;98089.28;;;-3.09;100.00
72423;BME280;71399;54.146;38.734;2023-12-28T01:51:44;98102.63;;;-3.21;100.00
72423;BME280;71399;54.146;38.734;2023-12-28T01:54:11;98104.28;;;-3.28;100.00
72423;BME280;71399;54.146;38.734;2023-12-28T01:56:38;98099.00;;;-3.35;100.00
72423;BME280;71399;54.146;38.734;2023-12-28T01:59:05;98109.38;;;-3.43;100.00
72423;BME280;71399;54.146;38.734;2023-12-28T02:01:32;98104.06;;;-3.41;100.00
72423;BME280;71399;54.146;38.734;2023-12-28T02:03:58;98092.91;;;-3.57;100.00
72423;BME280;71399;54.146;38.734;2023-12-28T02:06:25;98108.19;;;-3.55;100.00
72423;BME280;71399;54.146;38.734;2023-12-28T02:08:51;98093.88;;;-3.58;100.00
72423;BME280;71399;54.146;38.734;2023-12-28T02:11:19;98089.09;;;-3.61;100.00
72423;BME280;71399;54.146;38.734;2023-12-28T02:13:46;98094.75;;;-3.65;100.00
72423;BME280;71399;54.146;38.734;2023-12-28T02:16:22;98089.44;;;-3.64;100.00
72423;BME280;71399;54.146;38.734;2023-12-28T02:18:53;98095.53;;;-3.65;100.00
72423;BME280;71399;54.146;38.734;2023-12-28T02:21:21;98075.75;;;-3.64;100.00
72423;BME280;71399;54.146;38.734;2023-12-28T02:23:48;98074.25;;;-3.59;100.00
72423;BME280;71399;54.146;38.734;2023-12-28T02:26:16;98063.97;;;-3.59;100.00
72423;BME280;71399;54.146;38.734;2023-12-28T02:28:44;98074.03;;;-3.49;100.00
72423;BME280;71399;54.146;38.734;2023-12-28T02:31:36;98083.78;;;-3.44;100.00
72423;BME280;71399;54.146;38.734;2023-12-28T02:34:19;98064.78;;;-3.43;100.00
72423;BME280;71399;54.146;38.734;2023-12-28T02:36:49;98084.47;;;-3.27;100.00
72423;BME280;71399;54.146;38.734;2023-12-28T02:39:16;98094.25;;;-3.23;100.00
72423;BME280;71399;54.146;38.734;2023-12-28T02:41:45;98108.41;;;-3.19;100.00
72423;BME280;71399;54.146;38.734;2023-12-28T02:44:12;98099.94;;;-3.12;100.00
72423;BME280;71399;54.146;38.734;2023-12-28T02:46:39;98104.91;;;-3.11;100.00
72423;BME280;71399;54.146;38.734;2023-12-28T02:49:06;98097.19;;;-3.11;100.00
72423;BME280;71399;54.146;38.734;2023-12-28T02:51:33;98108.88;;;-3.00;100.00
72423;BME280;71399;54.146;38.734;2023-12-28T02:53:59;98107.78;;;-3.06;100.00
72423;BME280;71399;54.146;38.734;2023-12-28T02:56:25;98125.56;;;-2.96;100.00
72423;BME280;71399;54.146;38.734;2023-12-28T02:58:52;98126.00;;;-2.92;100.00
72423;BME280;71399;54.146;38.734;2023-12-28T03:01:18;98123.25;;;-2.91;100.00
72423;BME280;71399;54.146;38.734;2023-12-28T03:03:44;98129.06;;;-2.89;100.00
72423;BME280;71399;54.146;38.734;2023-12-28T03:06:11;98129.41;;;-2.92;100.00
72423;BME280;71399;54.146;38.734;2023-12-28T03:08:37;98140.19;;;-2.88;100.00
72423;BME280;71399;54.146;38.734;2023-12-28T03:11:03;98130.03;;;-2.90;100.00
72423;BME280;71399;54.146;38.734;2023-12-28T03:13:30;98125.56;;;-2.96;100.00
72423;BME280;71399;54.146;38.734;2023-12-28T03:15:57;98136.81;;;-2.89;100.00
72423;BME280;71399;54.146;38.734;2023-12-28T03:18:24;98140.44;;;-2.83;100.00
72423;BME280;71399;54.146;38.734;2023-12-28T03:20:52;98132.97;;;-2.78;100.00
72423;BME280;71399;54.146;38.734;2023-12-28T03:23:18;98133.25;;;-2.73;100.00
72423;BME280;71399;54.146;38.734;2023-12-28T03:25:44;98139.50;;;-2.67;100.00
72423;BME280;71399;54.146;38.734;2023-12-28T03:28:11;98150.25;;;-2.64;100.00
72423;BME280;71399;54.146;38.734;2023-12-28T03:30:38;98154.41;;;-2.63;100.00
72423;BME280;71399;54.146;38.734;2023-12-28T03:33:06;98157.66;;;-2.61;100.00
72423;BME280;71399;54.146;38.734;2023-12-28T03:35:32;98154.06;;;-2.59;100.00
72423;BME280;71399;54.146;38.734;2023-12-28T03:37:58;98152.28;;;-2.59;100.00
72423;BME280;71399;54.146;38.734;2023-12-28T03:40:26;98133.59;;;-2.61;100.00
72423;BME280;71399;54.146;38.734;2023-12-28T03:42:52;98142.25;;;-2.54;100.00
72423;BME280;71399;54.146;38.734;2023-12-28T03:45:18;98144.63;;;-2.52;100.00
72423;BME280;71399;54.146;38.734;2023-12-28T03:47:45;98150.09;;;-2.47;100.00
72423;BME280;71399;54.146;38.734;2023-12-28T03:50:12;98139.56;;;-2.46;100.00
72423;BME280;71399;54.146;38.734;2023-12-28T03:52:38;98133.44;;;-2.45;100.00
72423;BME280;71399;54.146;38.734;2023-12-28T03:55:05;98136.63;;;-2.43;100.00
72423;BME280;71399;54.146;38.734;2023-12-28T03:57:31;98129.31;;;-2.39;100.00
72423;BME280;71399;54.146;38.734;2023-12-28T03:59:58;98128.88;;;-2.43;100.00
72423;BME280;71399;54.146;38.734;2023-12-28T04:02:25;98130.16;;;-2.38;100.00
72423;BME280;71399;54.146;38.734;2023-12-28T04:04:53;98125.94;;;-2.39;100.00
72423;BME280;71399;54.146;38.734;2023-12-28T04:07:21;98125.44;;;-2.35;100.00
72423;BME280;71399;54.146;38.734;2023-12-28T04:09:48;98118.81;;;-2.37;100.00
72423;BME280;71399;54.146;38.734;2023-12-28T04:12:15;98121.22;;;-2.36;100.00
72423;BME280;71399;54.146;38.734;2023-12-28T04:14:41;98108.25;;;-2.43;100.00
72423;BME280;71399;54.146;38.734;2023-12-28T04:17:07;98120.88;;;-2.33;100.00
72423;BME280;71399;54.146;38.734;2023-12-28T04:19:34;98103.72;;;-2.40;100.00
72423;BME280;71399;54.146;38.734;2023-12-28T04:22:00;98116.50;;;-2.32;100.00
72423;BME280;71399;54.146;38.734;2023-12-28T04:24:26;98117.31;;;-2.32;100.00
72423;BME280;71399;54.146;38.734;2023-12-28T04:26:52;98115.28;;;-2.36;100.00
72423;BME280;71399;54.146;38.734;2023-12-28T04:29:19;98117.59;;;-2.42;100.00
72423;BME280;71399;54.146;38.734;2023-12-28T04:31:47;98098.09;;;-2.44;100.00
72423;BME280;71399;54.146;38.734;2023-12-28T04:34:13;98090.81;;;-2.40;100.00
72423;BME280;71399;54.146;38.734;2023-12-28T04:36:41;98066.00;;;-2.42;100.00
72423;BME280;71399;54.146;38.734;2023-12-28T04:39:08;98070.06;;;-2.32;100.00
72423;BME280;71399;54.146;38.734;2023-12-28T04:41:34;98060.47;;;-2.38;100.00
72423;BME280;71399;54.146;38.734;2023-12-28T04:44:02;98089.13;;;-2.33;100.00
72423;BME280;71399;54.146;38.734;2023-12-28T04:46:28;98083.59;;;-2.30;100.00
72423;BME280;71399;54.146;38.734;2023-12-28T04:48:55;98088.94;;;-2.32;100.00
72423;BME280;71399;54.146;38.734;2023-12-28T04:51:21;98086.19;;;-2.30;100.00
72423;BME280;71399;54.146;38.734;2023-12-28T04:53:47;98074.84;;;-2.29;100.00
72423;BME280;71399;54.146;38.734;2023-12-28T04:56:18;98068.13;;;-2.30;100.00
72423;BME280;71399;54.146;38.734;2023-12-28T04:58:44;98084.47;;;-2.23;100.00
72423;BME280;71399;54.146;38.734;2023-12-28T05:01:11;98081.72;;;-2.21;100.00
72423;BME280;71399;54.146;38.734;2023-12-28T05:03:38;98083.31;;;-2.20;100.00
72423;BME280;71399;54.146;38.734;2023-12-28T05:06:04;98087.66;;;-2.21;100.00
72423;BME280;71399;54.146;38.734;2023-12-28T05:08:30;98084.09;;;-2.20;100.00
72423;BME280;71399;54.146;38.734;2023-12-28T05:10:58;98100.56;;;-2.21;100.00
72423;BME280;71399;54.146;38.734;2023-12-28T05:13:24;98101.31;;;-2.27;100.00
72423;BME280;71399;54.146;38.734;2023-12-28T05:15:50;98091.34;;;-2.30;100.00
72423;BME280;71399;54.146;38.734;2023-12-28T05:18:16;98072.03;;;-2.34;100.00
72423;BME280;71399;54.146;38.734;2023-12-28T05:20:43;98068.13;;;-2.30;100.00
72423;BME280;71399;54.146;38.734;2023-12-28T05:23:09;98069.16;;;-2.25;100.00
72423;BME280;71399;54.146;38.734;2023-12-28T05:25:35;98064.91;;;-2.32;100.00
72423;BME280;71399;54.146;38.734;2023-12-28T05:28:02;98058.75;;;-2.31;100.00
72423;BME280;71399;54.146;38.734;2023-12-28T05:30:29;98079.31;;;-2.23;100.00
72423;BME280;71399;54.146;38.734;2023-12-28T05:32:55;98083.94;;;-2.18;100.00
72423;BME280;71399;54.146;38.734;2023-12-28T05:35:21;98086.09;;;-2.22;100.00
72423;BME280;71399;54.146;38.734;2023-12-28T05:37:47;98102.69;;;-2.10;100.00
72423;BME280;71399;54.146;38.734;2023-12-28T05:40:14;98100.47;;;-2.13;100.00
72423;BME280;71399;54.146;38.734;2023-12-28T05:42:40;98101.53;;;-2.07;100.00
72423;BME280;71399;54.146;38.734;2023-12-28T05:45:07;98110.31;;;-2.01;100.00
72423;BME280;71399;54.146;38.734;2023-12-28T05:47:33;98150.38;;;-2.06;100.00
72423;BME280;71399;54.146;38.734;2023-12-28T05:49:59;98140.38;;;-2.15;100.00
72423;BME280;71399;54.146;38.734;2023-12-28T05:52:26;98160.44;;;-2.11;100.00
72423;BME280;71399;54.146;38.734;2023-12-28T05:54:52;98154.59;;;-2.19;100.00
72423;BME280;71399;54.146;38.734;2023-12-28T05:57:19;98168.38;;;-2.12;100.00
72423;BME280;71399;54.146;38.734;2023-12-28T05:59:45;98169.38;;;-2.13;100.00
72423;BME280;71399;54.146;38.734;2023-12-28T06:02:11;98173.53;;;-2.12;100.00
72423;BME280;71399;54.146;38.734;2023-12-28T06:04:38;98185.38;;;-2.18;100.00
72423;BME280;71399;54.146;38.734;2023-12-28T06:07:04;98179.00;;;-2.22;100.00
72423;BME280;71399;54.146;38.734;2023-12-28T06:09:31;98199.56;;;-2.14;100.00
72423;BME280;71399;54.146;38.734;2023-12-28T06:11:57;98209.25;;;-2.16;100.00
72423;BME280;71399;54.146;38.734;2023-12-28T06:14:24;98192.25;;;-2.25;100.00
72423;BME280;71399;54.146;38.734;2023-12-28T06:16:50;98206.03;;;-2.18;100.00
72423;BME280;71399;54.146;38.734;2023-12-28T06:19:16;98209.50;;;-2.11;100.00
72423;BME280;71399;54.146;38.734;2023-12-28T06:21:43;98212.16;;;-2.04;100.00
72423;BME280;71399;54.146;38.734;2023-12-28T06:24:09;98234.88;;;-1.99;100.00
72423;BME280;71399;54.146;38.734;2023-12-28T06:26:40;98253.94;;;-2.00;100.00
72423;BME280;71399;54.146;38.734;2023-12-28T06:29:07;98248.88;;;-1.94;100.00
72423;BME280;71399;54.146;38.734;2023-12-28T06:31:33;98253.91;;;-1.86;100.00
72423;BME280;71399;54.146;38.734;2023-12-28T06:34:03;98275.31;;;-1.77;100.00
72423;BME280;71399;54.146;38.734;2023-12-28T06:36:29;98275.31;;;-1.77;100.00
72423;BME280;71399;54.146;38.734;2023-12-28T06:38:56;98293.31;;;-1.69;100.00
72423;BME280;71399;54.146;38.734;2023-12-28T06:41:23;98309.25;;;-1.65;100.00
72423;BME280;71399;54.146;38.734;2023-12-28T06:43:50;98315.81;;;-1.62;100.00
72423;BME280;71399;54.146;38.734;2023-12-28T06:46:17;98327.06;;;-1.55;100.00
72423;BME280;71399;54.146;38.734;2023-12-28T06:48:44;98334.53;;;-1.60;100.00
72423;BME280;71399;54.146;38.734;2023-12-28T06:51:16;98348.34;;;-1.53;100.00
72423;BME280;71399;54.146;38.734;2023-12-28T06:53:44;98346.63;;;-1.46;100.00
72423;BME280;71399;54.146;38.734;2023-12-28T06:56:10;98362.06;;;-1.38;100.00
72423;BME280;71399;54.146;38.734;2023-12-28T06:58:37;98377.56;;;-1.38;100.00
72423;BME280;71399;54.146;38.734;2023-12-28T07:01:04;98374.81;;;-1.36;100.00
72423;BME280;71399;54.146;38.734;2023-12-28T07:03:30;98387.28;;;-1.25;100.00
72423;BME280;71399;54.146;38.734;2023-12-28T07:05:59;98396.63;;;-1.24;100.00
72423;BME280;71399;54.146;38.734;2023-12-28T07:08:25;98419.97;;;-1.17;100.00
72423;BME280;71399;54.146;38.734;2023-12-28T07:10:52;98405.91;;;-1.15;100.00
72423;BME280;71399;54.146;38.734;2023-12-28T07:13:18;98405.38;;;-1.10;100.00
72423;BME280;71399;54.146;38.734;2023-12-28T07:15:44;98421.41;;;-1.00;100.00
72423;BME280;71399;54.146;38.734;2023-12-28T07:18:11;98420.03;;;-0.96;100.00
72423;BME280;71399;54.146;38.734;2023-12-28T07:20:38;98425.28;;;-0.89;100.00
72423;BME280;71399;54.146;38.734;2023-12-28T07:23:04;98430.38;;;-0.81;100.00
72423;BME280;71399;54.146;38.734;2023-12-28T07:25:30;98444.31;;;-0.82;100.00
72423;BME280;71399;54.146;38.734;2023-12-28T07:27:57;98441.03;;;-0.69;100.00
72423;BME280;71399;54.146;38.734;2023-12-28T07:30:23;98447.41;;;-0.71;100.00
72423;BME280;71399;54.146;38.734;2023-12-28T07:32:49;98455.16;;;-0.71;100.00
72423;BME280;71399;54.146;38.734;2023-12-28T07:35:17;98461.13;;;-0.71;100.00
72423;BME280;71399;54.146;38.734;2023-12-28T07:37:43;98466.16;;;-0.84;100.00
72423;BME280;71399;54.146;38.734;2023-12-28T07:40:12;98466.06;;;-0.91;100.00
72423;BME280;71399;54.146;38.734;2023-12-28T07:42:39;98464.66;;;-0.94;100.00
72423;BME280;71399;54.146;38.734;2023-12-28T07:45:05;98476.78;;;-0.94;100.00
72423;BME280;71399;54.146;38.734;2023-12-28T07:47:32;98474.34;;;-0.96;100.00
72423;BME280;71399;54.146;38.734;2023-12-28T07:49:59;98459.09;;;-0.90;100.00
72423;BME280;71399;54.146;38.734;2023-12-28T07:52:26;98460.44;;;-0.80;100.00
72423;BME280;71399;54.146;38.734;2023-12-28T07:54:53;98477.00;;;-0.74;100.00
72423;BME280;71399;54.146;38.734;2023-12-28T07:57:21;98480.44;;;-0.73;100.00
72423;BME280;71399;54.146;38.734;2023-12-28T07:59:47;98480.75;;;-0.62;100.00
72423;BME280;71399;54.146;38.734;2023-12-28T08:02:14;98479.31;;;-0.64;100.00
72423;BME280;71399;54.146;38.734;2023-12-28T08:04:40;98495.91;;;-0.59;100.00
72423;BME280;71399;54.146;38.734;2023-12-28T08:07:06;98503.41;;;-0.64;100.00
72423;BME280;71399;54.146;38.734;2023-12-28T08:09:34;98494.59;;;-0.84;100.00
72423;BME280;71399;54.146;38.734;2023-12-28T08:12:01;98485.63;;;-1.03;100.00
72423;BME280;71399;54.146;38.734;2023-12-28T08:14:29;98491.31;;;-1.08;100.00
72423;BME280;71399;54.146;38.734;2023-12-28T08:16:55;98491.13;;;-1.21;100.00
72423;BME280;71399;54.146;38.734;2023-12-28T08:19:21;98489.69;;;-1.24;100.00
72423;BME280;71399;54.146;38.734;2023-12-28T08:21:48;98492.47;;;-1.25;100.00
72423;BME280;71399;54.146;38.734;2023-12-28T08:24:14;98496.03;;;-1.26;100.00
72423;BME280;71399;54.146;38.734;2023-12-28T08:26:42;98487.56;;;-1.35;100.00
72423;BME280;71399;54.146;38.734;2023-12-28T08:29:08;98493.81;;;-1.29;100.00
72423;BME280;71399;54.146;38.734;2023-12-28T08:31:34;98488.81;;;-1.31;100.00
72423;BME280;71399;54.146;38.734;2023-12-28T08:34:01;98488.97;;;-1.33;100.00
72423;BME280;71399;54.146;38.734;2023-12-28T08:36:27;98492.19;;;-1.31;100.00
72423;BME280;71399;54.146;38.734;2023-12-28T08:38:53;98486.50;;;-1.26;100.00
72423;BME280;71399;54.146;38.734;2023-12-28T08:41:23;98474.09;;;-1.31;100.00
72423;BME280;71399;54.146;38.734;2023-12-28T08:43:50;98480.34;;;-1.25;100.00
72423;BME280;71399;54.146;38.734;2023-12-28T08:46:18;98491.59;;;-1.18;100.00
72423;BME280;71399;54.146;38.734;2023-12-28T08:48:45;98497.94;;;-1.20;100.00
72423;BME280;71399;54.146;38.734;2023-12-28T08:51:11;98494.34;;;-1.19;100.00
72423;BME280;71399;54.146;38.734;2023-12-28T08:53:40;98500.41;;;-1.12;100.00
72423;BME280;71399;54.146;38.734;2023-12-28T08:56:16;98486.31;;;-1.24;100.00
72423;BME280;71399;54.146;38.734;2023-12-28T08:58:44;98511.63;;;-1.35;100.00
72423;BME280;71399;54.146;38.734;2023-12-28T09:01:20;98502.91;;;-1.34;100.00
72423;BME280;71399;54.146;38.734;2023-12-28T09:03:52;98499.16;;;-1.16;100.00
72423;BME280;71399;54.146;38.734;2023-12-28T09:06:20;98502.00;;;-0.81;100.00
72423;BME280;71399;54.146;38.734;2023-12-28T09:08:51;98506.72;;;-0.55;100.00
72423;BME280;71399;54.146;38.734;2023-12-28T09:11:18;98542.41;;;-0.65;100.00
72423;BME280;71399;54.146;38.734;2023-12-28T09:13:45;98539.84;;;-0.80;100.00
72423;BME280;71399;54.146;38.734;2023-12-28T09:16:13;98545.81;;;-0.95;100.00
72423;BME280;71399;54.146;38.734;2023-12-28T09:18:41;98540.47;;;-1.08;100.00
72423;BME280;71399;54.146;38.734;2023-12-28T09:21:09;98526.16;;;-1.19;100.00
72423;BME280;71399;54.146;38.734;2023-12-28T09:23:36;98516.09;;;-1.28;100.00
72423;BME280;71399;54.146;38.734;2023-12-28T09:26:03;98499.94;;;-1.31;100.00
72423;BME280;71399;54.146;38.734;2023-12-28T09:28:31;98508.97;;;-1.26;100.00
72423;BME280;71399;54.146;38.734;2023-12-28T09:30:57;98499.66;;;-1.36;100.00
72423;BME280;71399;54.146;38.734;2023-12-28T09:33:24;98496.28;;;-1.36;100.00
72423;BME280;71399;54.146;38.734;2023-12-28T09:35:50;98488.88;;;-1.39;100.00
72423;BME280;71399;54.146;38.734;2023-12-28T09:38:16;98488.97;;;-1.47;100.00
72423;BME280;71399;54.146;38.734;2023-12-28T09:40:43;98483.44;;;-1.44;100.00
72423;BME280;71399;54.146;38.734;2023-12-28T09:43:13;98496.81;;;-1.41;100.00
72423;BME280;71399;54.146;38.734;2023-12-28T09:45:41;98488.53;;;-1.36;100.00
72423;BME280;71399;54.146;38.734;2023-12-28T09:48:08;98482.75;;;-1.23;100.00
72423;BME280;71399;54.146;38.734;2023-12-28T09:50:34;98485.78;;;-1.20;100.00
72423;BME280;71399;54.146;38.734;2023-12-28T09:53:00;98521.91;;;-1.12;100.00
72423;BME280;71399;54.146;38.734;2023-12-28T09:55:27;98529.16;;;-1.07;100.00
72423;BME280;71399;54.146;38.734;2023-12-28T09:57:56;98546.88;;;-1.04;100.00
72423;BME280;71399;54.146;38.734;2023-12-28T10:00:24;98571.31;;;-1.06;100.00
72423;BME280;71399;54.146;38.734;2023-12-28T10:02:50;98572.09;;;-1.21;100.00
72423;BME280;71399;54.146;38.734;2023-12-28T10:05:16;98582.69;;;-1.16;100.00
72423;BME280;71399;54.146;38.734;2023-12-28T10:07:44;98589.16;;;-1.12;100.00
72423;BME280;71399;54.146;38.734;2023-12-28T10:10:10;98574.50;;;-1.19;100.00
72423;BME280;71399;54.146;38.734;2023-12-28T10:12:37;98583.16;;;-1.27;100.00
72423;BME280;71399;54.146;38.734;2023-12-28T10:15:05;98582.44;;;-1.44;100.00
72423;BME280;71399;54.146;38.734;2023-12-28T10:17:33;98578.97;;;-1.51;100.00
72423;BME280;71399;54.146;38.734;2023-12-28T10:20:03;98587.94;;;-1.62;100.00
72423;BME280;71399;54.146;38.734;2023-12-28T10:22:37;98594.34;;;-1.58;100.00
72423;BME280;71399;54.146;38.734;2023-12-28T10:25:03;98598.63;;;-1.42;100.00
72423;BME280;71399;54.146;38.734;2023-12-28T10:27:30;98596.44;;;-1.15;100.00
72423;BME280;71399;54.146;38.734;2023-12-28T10:29:57;98597.91;;;-0.98;100.00
72423;BME280;71399;54.146;38.734;2023-12-28T10:32:23;98607.38;;;-0.90;100.00
72423;BME280;71399;54.146;38.734;2023-12-28T10:34:52;98599.97;;;-0.93;100.00
72423;BME280;71399;54.146;38.734;2023-12-28T10:37:21;98612.09;;;-0.94;100.00
72423;BME280;71399;54.146;38.734;2023-12-28T10:39:48;98609.97;;;-0.90;100.00
72423;BME280;71399;54.146;38.734;2023-12-28T10:42:29;98609.72;;;-0.80;100.00
72423;BME280;71399;54.146;38.734;2023-12-28T10:45:05;98607.00;;;-0.72;100.00
72423;BME280;71399;54.146;38.734;2023-12-28T10:47:33;98609.41;;;-0.85;100.00
72423;BME280;71399;54.146;38.734;2023-12-28T10:50:04;98622.88;;;-1.05;100.00
72423;BME280;71399;54.146;38.734;2023-12-28T10:52:34;98622.81;;;-1.20;100.00
72423;BME280;71399;54.146;38.734;2023-12-28T10:58:10;98613.25;;;-1.57;100.00
72423;BME280;71399;54.146;38.734;2023-12-28T11:00:49;98619.06;;;-1.55;100.00
72423;BME280;71399;54.146;38.734;2023-12-28T11:03:23;98632.09;;;-1.48;100.00
72423;BME280;71399;54.146;38.734;2023-12-28T11:05:53;98639.75;;;-1.55;100.00
72423;BME280;71399;54.146;38.734;2023-12-28T11:08:21;98628.13;;;-1.59;100.00
72423;BME280;71399;54.146;38.734;2023-12-28T11:10:50;98647.66;;;-1.57;100.00
72423;BME280;71399;54.146;38.734;2023-12-28T11:13:19;98642.03;;;-1.60;100.00
72423;BME280;71399;54.146;38.734;2023-12-28T11:15:48;98636.75;;;-1.67;100.00
72423;BME280;71399;54.146;38.734;2023-12-28T11:18:17;98639.50;;;-1.69;100.00
72423;BME280;71399;54.146;38.734;2023-12-28T11:20:44;98638.56;;;-1.76;100.00
72423;BME280;71399;54.146;38.734;2023-12-28T11:23:11;98646.75;;;-1.72;100.00
72423;BME280;71399;54.146;38.734;2023-12-28T11:25:38;98656.75;;;-1.69;100.00
72423;BME280;71399;54.146;38.734;2023-12-28T11:28:11;98645.69;;;-1.55;100.00
72423;BME280;71399;54.146;38.734;2023-12-28T11:30:39;98651.22;;;-1.35;100.00
72423;BME280;71399;54.146;38.734;2023-12-28T11:33:07;98658.47;;;-1.30;100.00
72423;BME280;71399;54.146;38.734;2023-12-28T11:35:36;98653.22;;;-1.45;100.00
72423;BME280;71399;54.146;38.734;2023-12-28T11:38:09;98671.88;;;-1.58;100.00
72423;BME280;71399;54.146;38.734;2023-12-28T11:40:41;98664.13;;;-1.89;100.00
72423;BME280;71399;54.146;38.734;2023-12-28T11:43:19;98671.63;;;-2.02;100.00
72423;BME280;71399;54.146;38.734;2023-12-28T11:45:54;98666.50;;;-2.19;100.00
72423;BME280;71399;54.146;38.734;2023-12-28T11:48:25;98672.47;;;-2.10;100.00
72423;BME280;71399;54.146;38.734;2023-12-28T11:50:59;98667.56;;;-1.97;100.00
72423;BME280;71399;54.146;38.734;2023-12-28T11:53:26;98665.59;;;-1.87;100.00
72423;BME280;71399;54.146;38.734;2023-12-28T11:55:59;98660.34;;;-1.70;100.00
72423;BME280;71399;54.146;38.734;2023-12-28T11:58:29;98681.47;;;-1.66;100.00
72423;BME280;71399;54.146;38.734;2023-12-28T12:00:55;98675.31;;;-1.65;100.00
72423;BME280;71399;54.146;38.734;2023-12-28T12:03:25;98677.59;;;-1.71;100.00
72423;BME280;71399;54.146;38.734;2023-12-28T12:05:52;98663.78;;;-1.86;100.00
72423;BME280;71399;54.146;38.734;2023-12-28T12:08:20;98678.34;;;-1.85;100.00
72423;BME280;71399;54.146;38.734;2023-12-28T12:10:47;98680.16;;;-1.94;100.00
72423;BME280;71399;54.146;38.734;2023-12-28T12:13:14;98678.53;;;-1.95;100.00
72423;BME280;71399;54.146;38.734;2023-12-28T12:15:40;98684.19;;;-1.99;100.00
72423;BME280;71399;54.146;38.734;2023-12-28T12:18:06;98672.59;;;-2.03;100.00
72423;BME280;71399;54.146;38.734;2023-12-28T12:20:33;98689.03;;;-1.96;100.00
72423;BME280;71399;54.146;38.734;2023-12-28T12:23:00;98681.31;;;-2.05;100.00
72423;BME280;71399;54.146;38.734;2023-12-28T12:25:26;98699.75;;;-2.16;100.00
72423;BME280;71399;54.146;38.734;2023-12-28T12:27:54;98681.09;;;-2.34;100.00
72423;BME280;71399;54.146;38.734;2023-12-28T12:30:21;98690.47;;;-2.42;100.00
72423;BME280;71399;54.146;38.734;2023-12-28T12:32:48;98693.38;;;-2.53;100.00
72423;BME280;71399;54.146;38.734;2023-12-28T12:35:15;98698.88;;;-2.56;100.00
72423;BME280;71399;54.146;38.734;2023-12-28T12:37:42;98701.78;;;-2.59;100.00
72423;BME280;71399;54.146;38.734;2023-12-28T12:40:09;98702.75;;;-2.68;100.00
72423;BME280;71399;54.146;38.734;2023-12-28T12:42:36;98713.06;;;-2.60;100.00
72423;BME280;71399;54.146;38.734;2023-12-28T12:45:02;98719.81;;;-2.59;100.00